createdAt,value
2022-08-17T00:00:34.626Z,76.35
2022-08-17T00:01:27.185Z,77.12
2022-08-17T00:02:27.210Z,76.21
2022-08-17T00:03:25.971Z,76.92
2022-08-17T00:04:25.943Z,77.62
2022-08-17T00:05:26.348Z,76.35
2022-08-17T00:06:25.935Z,75.75
2022-08-17T00:07:25.913Z,74.95
2022-08-17T00:08:25.914Z,75.85
2022-08-17T00:09:25.915Z,76.45
2022-08-17T00:10:26.577Z,76.45
2022-08-17T00:11:25.876Z,75.15
2022-08-17T00:12:41.471Z,73.64
2022-08-17T00:13:26.866Z,74.55
2022-08-17T00:14:25.838Z,74.51
2022-08-17T00:15:25.839Z,74.71
2022-08-17T00:16:55.611Z,73.91
2022-08-17T00:17:26.809Z,73.10
2022-08-17T00:18:58.369Z,74.51
2022-08-17T00:19:26.799Z,73.81
2022-08-17T00:20:30.665Z,73.21
2022-08-17T00:21:26.759Z,73.21
2022-08-17T00:22:34.789Z,73.47
2022-08-17T00:23:27.560Z,73.07
2022-08-17T00:24:25.788Z,73.57
2022-08-17T00:25:25.730Z,75.21
2022-08-17T00:26:43.512Z,74.51
2022-08-17T00:27:26.708Z,76.42
2022-08-17T00:28:25.689Z,76.62
2022-08-17T00:29:25.713Z,76.92
2022-08-17T00:30:25.662Z,75.42
2022-08-17T00:31:25.661Z,75.15
2022-08-17T00:33:15.709Z,77.26
2022-08-17T00:33:27.092Z,76.05
2022-08-17T00:34:25.618Z,77.56
2022-08-17T00:35:25.613Z,77.96
2022-08-17T00:36:25.614Z,78.86
2022-08-17T00:37:25.594Z,78.27
2022-08-17T00:38:25.582Z,78.46
2022-08-17T00:39:25.651Z,77.00
2022-08-17T00:40:25.554Z,77.59
2022-08-17T00:41:25.846Z,79.10
2022-08-17T00:42:30.448Z,78.20
2022-08-17T00:43:26.527Z,77.90
2022-08-17T00:44:30.223Z,78.10
2022-08-17T00:45:26.508Z,77.70
2022-08-17T00:46:25.516Z,78.40
2022-08-17T00:47:25.489Z,79.61
2022-08-17T00:48:30.247Z,79.61
2022-08-17T00:49:26.458Z,80.31
2022-08-17T00:50:25.439Z,80.51
2022-08-17T00:51:25.452Z,80.95
2022-08-17T00:52:25.427Z,79.64
2022-08-17T00:53:25.430Z,79.74
2022-08-17T00:54:25.403Z,79.35
2022-08-17T00:55:25.802Z,80.05
2022-08-17T00:56:25.381Z,80.25
2022-08-17T00:57:25.372Z,80.05
2022-08-17T00:58:35.921Z,80.15
2022-08-17T00:59:26.353Z,80.29
2022-08-17T01:00:25.343Z,80.79
2022-08-17T01:01:25.369Z,81.70
2022-08-17T01:02:25.321Z,82.80
2022-08-17T01:03:25.309Z,81.39
2022-08-17T01:04:25.325Z,81.90
2022-08-17T01:05:25.494Z,82.14
2022-08-17T01:06:25.294Z,81.84
2022-08-17T01:07:25.264Z,82.24
2022-08-17T01:08:25.263Z,82.24
2022-08-17T01:09:25.407Z,82.34
2022-08-17T01:10:59.497Z,82.74
2022-08-17T01:11:26.272Z,82.84
2022-08-17T01:12:25.240Z,82.74
2022-08-17T01:13:25.244Z,82.34
2022-08-17T01:14:25.181Z,82.54
2022-08-17T01:15:25.179Z,82.38
2022-08-17T01:16:25.170Z,82.68
2022-08-17T01:17:25.159Z,83.18
2022-08-17T01:18:25.141Z,84.09
2022-08-17T01:19:25.141Z,84.19
2022-08-17T01:20:25.153Z,83.99
2022-08-17T01:21:25.101Z,83.99
2022-08-17T01:22:25.107Z,83.79
2022-08-17T01:24:35.573Z,82.28
2022-08-17T01:25:35.483Z,82.68
2022-08-17T01:26:35.478Z,82.98
2022-08-17T01:27:35.464Z,82.88
2022-08-17T01:28:54.348Z,82.68
2022-08-17T01:29:36.441Z,83.39
2022-08-17T01:30:58.439Z,83.89
2022-08-17T01:31:36.415Z,82.68
2022-08-17T01:32:35.406Z,82.68
2022-08-17T01:33:35.396Z,81.87
2022-08-17T01:34:43.439Z,82.28
2022-08-17T01:35:36.374Z,83.18
2022-08-17T01:36:35.368Z,82.88
2022-08-17T01:37:35.348Z,83.39
2022-08-17T01:38:35.344Z,83.08
2022-08-17T01:39:35.390Z,83.52
2022-08-17T01:40:35.334Z,83.83
2022-08-17T01:41:35.330Z,83.83
2022-08-17T01:42:35.309Z,83.83
2022-08-17T01:43:35.290Z,83.93
2022-08-17T01:44:35.280Z,84.13
2022-08-17T01:45:35.271Z,84.33
2022-08-17T01:46:35.429Z,84.03
2022-08-17T01:47:36.010Z,84.23
2022-08-17T01:48:35.243Z,84.74
2022-08-17T01:49:35.219Z,84.94
2022-08-17T01:50:35.219Z,84.53
2022-08-17T01:51:35.203Z,84.03
2022-08-17T01:52:35.202Z,83.93
2022-08-17T01:53:35.193Z,83.52
2022-08-17T01:54:35.180Z,84.53
2022-08-17T01:55:35.163Z,85.44
2022-08-17T01:56:35.155Z,84.53
2022-08-17T01:57:35.143Z,85.24
2022-08-17T01:58:35.133Z,84.83
2022-08-17T01:59:35.116Z,84.74
2022-08-17T02:00:47.822Z,85.03
2022-08-17T02:01:36.153Z,85.24
2022-08-17T02:02:35.095Z,85.24
2022-08-17T02:03:35.085Z,84.94
2022-08-17T02:04:35.082Z,85.14
2022-08-17T02:05:35.048Z,85.44
2022-08-17T02:06:45.063Z,84.89
2022-08-17T02:07:59.402Z,85.30
2022-08-17T02:08:38.725Z,85.40
2022-08-17T02:09:35.008Z,85.16
2022-08-17T02:10:36.019Z,85.05
2022-08-17T02:11:35.979Z,84.41
2022-08-17T02:12:39.135Z,83.71
2022-08-17T02:13:34.967Z,83.40
2022-08-17T02:14:34.960Z,83.87
2022-08-17T02:15:34.946Z,84.07
2022-08-17T02:16:37.021Z,83.47
2022-08-17T02:17:34.923Z,83.47
2022-08-17T02:18:34.930Z,83.17
2022-08-17T02:19:34.898Z,83.87
2022-08-17T02:20:41.809Z,83.06
2022-08-17T02:21:35.882Z,82.97
2022-08-17T02:22:34.882Z,83.97
2022-08-17T02:23:34.854Z,84.21
2022-08-17T02:25:00.160Z,84.21
2022-08-17T02:25:35.835Z,84.31
2022-08-17T02:26:34.827Z,84.81
2022-08-17T02:27:34.829Z,84.91
2022-08-17T02:28:35.005Z,84.65
2022-08-17T02:29:34.796Z,86.26
2022-08-17T02:31:01.331Z,86.87
2022-08-17T02:31:35.770Z,86.36
2022-08-17T02:32:34.767Z,86.77
2022-08-17T02:33:42.128Z,87.07
2022-08-17T02:34:35.758Z,87.11
2022-08-17T02:35:34.739Z,86.81
2022-08-17T02:36:34.731Z,86.51
2022-08-17T02:37:34.726Z,87.05
2022-08-17T02:38:34.698Z,87.96
2022-08-17T02:39:34.695Z,88.16
2022-08-17T02:40:36.152Z,88.56
2022-08-17T02:41:34.667Z,89.37
2022-08-17T02:42:34.660Z,87.76
2022-08-17T02:43:34.641Z,87.45
2022-08-17T02:44:39.900Z,87.45
2022-08-17T02:45:35.627Z,88.16
2022-08-17T02:46:34.612Z,88.66
2022-08-17T02:47:34.630Z,88.70
2022-08-17T02:48:34.602Z,88.70
2022-08-17T02:49:34.593Z,88.81
2022-08-17T02:50:34.570Z,89.31
2022-08-17T02:51:34.574Z,88.90
2022-08-17T02:52:43.079Z,88.90
2022-08-17T02:53:36.248Z,88.60
2022-08-17T02:54:40.687Z,88.40
2022-08-17T02:55:35.524Z,88.30
2022-08-17T02:56:34.506Z,88.81
2022-08-17T02:57:34.505Z,88.00
2022-08-17T02:58:35.977Z,87.80
2022-08-17T02:59:34.474Z,87.80
2022-08-17T03:00:34.648Z,88.30
2022-08-17T03:01:34.487Z,88.10
2022-08-17T03:02:34.451Z,88.10
2022-08-17T03:03:34.427Z,89.21
2022-08-17T03:04:35.583Z,88.30
2022-08-17T03:05:34.410Z,88.50
2022-08-17T03:06:34.446Z,88.56
2022-08-17T03:07:34.378Z,88.50
2022-08-17T03:08:34.379Z,88.90
2022-08-17T03:09:34.369Z,89.41
2022-08-17T03:10:34.379Z,89.31
2022-08-17T03:11:34.358Z,89.41
2022-08-17T03:12:34.332Z,89.51
2022-08-17T03:13:34.338Z,89.71
2022-08-17T03:14:37.027Z,89.75
2022-08-17T03:15:35.302Z,89.86
2022-08-17T03:16:34.301Z,90.16
2022-08-17T03:17:34.272Z,90.86
2022-08-17T03:18:34.272Z,91.06
2022-08-17T03:19:34.256Z,90.66
2022-08-17T03:20:34.253Z,90.66
2022-08-17T03:21:34.241Z,91.06
2022-08-17T03:22:36.290Z,90.77
2022-08-17T03:23:34.214Z,90.97
2022-08-17T03:24:34.205Z,90.56
2022-08-17T03:25:34.499Z,90.77
2022-08-17T03:26:34.225Z,90.77
2022-08-17T03:27:34.836Z,90.56
2022-08-17T03:28:34.174Z,90.77
2022-08-17T03:29:34.146Z,90.77
2022-08-17T03:30:34.154Z,90.66
2022-08-17T03:31:34.128Z,90.36
2022-08-17T03:32:34.127Z,89.75
2022-08-17T03:33:34.107Z,89.65
2022-08-17T03:34:34.107Z,89.55
2022-08-17T03:35:34.092Z,90.16
2022-08-17T03:36:36.115Z,90.66
2022-08-17T03:37:34.068Z,90.86
2022-08-17T03:38:39.318Z,90.56
2022-08-17T03:39:35.126Z,90.77
2022-08-17T03:40:34.770Z,90.46
2022-08-17T03:41:35.831Z,90.26
2022-08-17T03:42:34.020Z,90.56
2022-08-17T03:43:34.008Z,90.56
2022-08-17T03:44:34.000Z,90.66
2022-08-17T03:45:34.305Z,90.56
2022-08-17T03:46:35.596Z,90.86
2022-08-17T03:47:33.952Z,90.77
2022-08-17T03:48:33.963Z,90.97
2022-08-17T03:49:33.994Z,90.77
2022-08-17T03:50:34.747Z,90.77
2022-08-17T03:51:33.922Z,90.97
2022-08-17T03:52:33.906Z,90.56
2022-08-17T03:53:34.705Z,90.26
2022-08-17T03:54:33.888Z,89.95
2022-08-17T03:55:36.435Z,90.06
2022-08-17T03:56:33.864Z,89.65
2022-08-17T03:57:33.857Z,89.65
2022-08-17T03:58:33.845Z,90.46
2022-08-17T03:59:33.829Z,90.97
2022-08-17T04:00:33.828Z,91.17
2022-08-17T04:01:34.862Z,91.67
2022-08-17T04:02:33.798Z,91.37
2022-08-17T04:03:33.788Z,91.17
2022-08-17T04:04:33.918Z,91.77
2022-08-17T04:05:34.505Z,91.77
2022-08-17T04:06:33.759Z,92.07
2022-08-17T04:07:33.750Z,92.18
2022-08-17T04:08:33.997Z,91.67
2022-08-17T04:09:33.731Z,91.47
2022-08-17T04:10:33.956Z,91.47
2022-08-17T04:11:34.709Z,91.77
2022-08-17T04:12:34.502Z,91.53
2022-08-17T04:13:34.473Z,90.72
2022-08-17T04:14:33.672Z,91.02
2022-08-17T04:15:33.654Z,90.82
2022-08-17T04:16:33.654Z,90.92
2022-08-17T04:17:33.633Z,91.22
2022-08-17T04:18:33.726Z,91.63
2022-08-17T04:19:33.624Z,91.42
2022-08-17T04:20:34.295Z,91.13
2022-08-17T04:21:33.592Z,91.22
2022-08-17T04:22:34.462Z,91.22
2022-08-17T04:23:33.578Z,91.13
2022-08-17T04:24:33.591Z,91.33
2022-08-17T04:25:33.549Z,91.42
2022-08-17T04:26:52.119Z,90.92
2022-08-17T04:27:34.530Z,91.02
2022-08-17T04:28:33.524Z,90.82
2022-08-17T04:29:50.073Z,90.82
2022-08-17T04:30:34.538Z,90.92
2022-08-17T04:31:33.487Z,91.63
2022-08-17T04:33:10.641Z,91.22
2022-08-17T04:33:34.470Z,91.22
2022-08-17T04:34:33.458Z,91.73
2022-08-17T04:35:33.446Z,90.82
2022-08-17T04:36:33.779Z,92.03
2022-08-17T04:37:33.420Z,92.13
2022-08-17T04:38:33.430Z,92.03
2022-08-17T04:39:33.963Z,90.72
2022-08-17T04:40:33.391Z,90.62
2022-08-17T04:41:33.381Z,90.92
2022-08-17T04:42:33.372Z,91.42
2022-08-17T04:43:33.360Z,91.33
2022-08-17T04:44:37.594Z,91.22
2022-08-17T04:45:33.332Z,89.61
2022-08-17T04:46:33.323Z,89.71
2022-08-17T04:47:33.324Z,89.81
2022-08-17T04:48:37.050Z,88.56
2022-08-17T04:49:33.304Z,88.26
2022-08-17T04:50:33.282Z,87.45
2022-08-17T04:51:33.275Z,87.45
2022-08-17T04:52:43.729Z,88.06
2022-08-17T04:53:34.618Z,88.26
2022-08-17T04:54:33.246Z,88.46
2022-08-17T04:55:33.236Z,88.72
2022-08-17T04:56:33.217Z,88.92
2022-08-17T04:57:39.334Z,89.03
2022-08-17T04:58:34.199Z,88.42
2022-08-17T04:59:33.189Z,87.82
2022-08-17T05:00:33.176Z,88.42
2022-08-17T05:01:33.328Z,87.82
2022-08-17T05:02:33.160Z,88.22
2022-08-17T05:03:33.188Z,87.11
2022-08-17T05:04:35.151Z,86.16
2022-08-17T05:05:33.120Z,86.26
2022-08-17T05:06:33.101Z,86.57
2022-08-17T05:07:33.111Z,86.57
2022-08-17T05:08:33.081Z,86.66
2022-08-17T05:09:33.081Z,86.02
2022-08-17T05:10:33.061Z,85.82
2022-08-17T05:11:33.053Z,86.02
2022-08-17T05:12:33.044Z,86.02
2022-08-17T05:13:33.052Z,85.62
2022-08-17T05:14:33.986Z,86.43
2022-08-17T05:15:36.098Z,86.72
2022-08-17T05:16:33.004Z,86.99
2022-08-17T05:17:32.994Z,88.19
2022-08-17T05:18:32.975Z,88.70
2022-08-17T05:19:33.022Z,85.38
2022-08-17T05:20:32.955Z,84.27
2022-08-17T05:21:33.766Z,84.57
2022-08-17T05:22:32.947Z,85.48
2022-08-17T05:23:41.987Z,84.23
2022-08-17T05:24:42.508Z,84.53
2022-08-17T05:25:36.211Z,87.55
2022-08-17T05:26:32.894Z,87.55
2022-08-17T05:27:35.475Z,86.94
2022-08-17T05:28:32.869Z,86.94
2022-08-17T05:29:33.757Z,87.35
2022-08-17T05:30:32.902Z,86.85
2022-08-17T05:31:32.849Z,85.74
2022-08-17T05:32:37.303Z,85.19
2022-08-17T05:33:33.820Z,85.70
2022-08-17T05:34:32.810Z,86.80
2022-08-17T05:35:32.918Z,85.70
2022-08-17T05:36:37.870Z,85.50
2022-08-17T05:37:33.782Z,85.30
2022-08-17T05:38:32.763Z,85.80
2022-08-17T05:39:32.791Z,83.49
2022-08-17T05:40:33.249Z,83.59
2022-08-17T05:41:32.764Z,83.29
2022-08-17T05:42:32.730Z,81.88
2022-08-17T05:43:32.721Z,82.28
2022-08-17T05:44:32.712Z,83.69
2022-08-17T05:45:55.768Z,84.29
2022-08-17T05:46:33.675Z,82.89
2022-08-17T05:47:32.674Z,83.59
2022-08-17T05:48:39.728Z,82.34
2022-08-17T05:49:33.655Z,81.14
2022-08-17T05:50:33.466Z,81.04
2022-08-17T05:51:32.626Z,80.04
2022-08-17T05:52:32.755Z,80.04
2022-08-17T05:53:32.606Z,79.63
2022-08-17T05:54:32.588Z,79.23
2022-08-17T05:55:32.588Z,78.73
2022-08-17T05:56:32.566Z,79.90
2022-08-17T05:57:32.633Z,80.70
2022-08-17T05:58:32.562Z,79.80
2022-08-17T05:59:32.540Z,80.10
2022-08-17T06:00:32.666Z,81.00
2022-08-17T06:01:32.603Z,79.09
2022-08-17T06:02:32.503Z,79.96
2022-08-17T06:03:32.521Z,79.36
2022-08-17T06:04:32.567Z,80.06
2022-08-17T06:05:32.481Z,78.96
2022-08-17T06:06:33.256Z,79.25
2022-08-17T06:07:32.443Z,80.26
2022-08-17T06:08:32.443Z,79.25
2022-08-17T06:09:33.962Z,77.65
2022-08-17T06:10:32.537Z,78.45
2022-08-17T06:11:32.415Z,78.05
2022-08-17T06:12:32.398Z,79.12
2022-08-17T06:13:32.385Z,78.15
2022-08-17T06:14:32.499Z,78.72
2022-08-17T06:15:32.365Z,78.92
2022-08-17T06:16:34.280Z,79.22
2022-08-17T06:17:32.338Z,79.92
2022-08-17T06:18:32.328Z,80.42
2022-08-17T06:19:32.316Z,78.55
2022-08-17T06:20:32.304Z,78.52
2022-08-17T06:21:32.324Z,78.81
2022-08-17T06:22:32.301Z,79.32
2022-08-17T06:23:32.280Z,79.12
2022-08-17T06:24:32.260Z,79.82
2022-08-17T06:25:32.258Z,79.02
2022-08-17T06:26:39.662Z,79.92
2022-08-17T06:27:33.240Z,79.32
2022-08-17T06:28:32.211Z,79.42
2022-08-17T06:29:32.231Z,79.62
2022-08-17T06:30:59.611Z,80.28
2022-08-17T06:31:33.191Z,80.68
2022-08-17T06:32:32.173Z,78.78
2022-08-17T06:33:32.173Z,79.98
2022-08-17T06:34:32.143Z,78.48
2022-08-17T06:35:33.462Z,78.64
2022-08-17T06:36:32.124Z,78.54
2022-08-17T06:37:32.137Z,78.34
2022-08-17T06:38:38.339Z,78.14
2022-08-17T06:39:33.146Z,78.50
2022-08-17T06:40:32.077Z,78.60
2022-08-17T06:41:32.076Z,78.80
2022-08-17T06:43:05.024Z,78.60
2022-08-17T06:43:33.067Z,77.47
2022-08-17T06:44:43.434Z,77.67
2022-08-17T06:45:33.027Z,77.26
2022-08-17T06:46:32.025Z,77.86
2022-08-17T06:47:32.018Z,78.97
2022-08-17T06:48:32.008Z,77.47
2022-08-17T06:49:31.993Z,77.93
2022-08-17T06:50:31.979Z,76.33
2022-08-17T06:51:31.982Z,76.23
2022-08-17T06:52:37.606Z,76.43
2022-08-17T06:53:33.022Z,75.52
2022-08-17T06:54:31.958Z,74.89
2022-08-17T06:55:35.877Z,73.79
2022-08-17T06:56:54.473Z,74.79
2022-08-17T06:57:32.911Z,73.19
2022-08-17T06:58:31.882Z,72.76
2022-08-17T06:59:53.222Z,73.25
2022-08-17T07:00:33.392Z,72.56
2022-08-17T07:01:31.916Z,72.52
2022-08-17T07:02:51.218Z,73.52
2022-08-17T07:03:33.711Z,71.83
2022-08-17T07:04:32.094Z,72.32
2022-08-17T07:05:31.878Z,72.72
2022-08-17T07:06:31.862Z,73.12
2022-08-17T07:07:32.849Z,70.42
2022-08-17T07:08:34.896Z,69.49
2022-08-17T07:09:31.811Z,70.39
2022-08-17T07:10:31.845Z,68.70
2022-08-17T07:11:31.985Z,67.99
2022-08-17T07:12:31.747Z,69.16
2022-08-17T07:13:32.988Z,69.66
2022-08-17T07:14:32.061Z,71.06
2022-08-17T07:15:31.750Z,68.86
2022-08-17T07:16:31.749Z,69.56
2022-08-17T07:17:46.497Z,68.16
2022-08-17T07:18:32.757Z,68.06
2022-08-17T07:19:31.672Z,70.92
2022-08-17T07:20:31.669Z,68.53
2022-08-17T07:21:31.831Z,68.53
2022-08-17T07:22:57.230Z,66.93
2022-08-17T07:23:32.632Z,68.73
2022-08-17T07:24:31.622Z,68.19
2022-08-17T07:25:31.604Z,67.66
2022-08-17T07:26:31.593Z,67.66
2022-08-17T07:27:31.590Z,65.17
2022-08-17T07:28:31.573Z,65.14
2022-08-17T07:29:31.574Z,63.95
2022-08-17T07:30:31.544Z,63.95
2022-08-17T07:31:32.545Z,64.01
2022-08-17T07:32:31.539Z,63.22
2022-08-17T07:33:31.517Z,63.39
2022-08-17T07:34:31.506Z,64.69
2022-08-17T07:35:40.650Z,64.69
2022-08-17T07:36:32.487Z,63.85
2022-08-17T07:37:31.498Z,61.67
2022-08-17T07:38:31.457Z,62.99
2022-08-17T07:39:31.521Z,62.10
2022-08-17T07:40:31.525Z,62.69
2022-08-17T07:41:53.462Z,65.28
2022-08-17T07:42:34.273Z,63.49
2022-08-17T07:43:31.522Z,64.55
2022-08-17T07:44:31.428Z,65.05
2022-08-17T07:45:31.389Z,63.23
2022-08-17T07:46:31.377Z,62.83
2022-08-17T07:47:31.371Z,64.03
2022-08-17T07:48:31.381Z,60.02
2022-08-17T07:49:31.694Z,58.53
2022-08-17T07:50:31.342Z,60.02
2022-08-17T07:51:31.325Z,59.92
2022-08-17T07:52:50.438Z,59.12
2022-08-17T07:53:32.308Z,60.61
2022-08-17T07:54:31.291Z,61.24
2022-08-17T07:55:31.632Z,59.55
2022-08-17T07:56:32.465Z,58.06
2022-08-17T07:57:31.257Z,58.75
2022-08-17T07:58:31.254Z,59.35
2022-08-17T07:59:33.604Z,60.44
2022-08-17T08:00:32.809Z,61.54
2022-08-17T08:01:41.872Z,60.57
2022-08-17T08:02:33.873Z,61.27
2022-08-17T08:03:31.201Z,63.29
2022-08-17T08:05:50.115Z,61.40
2022-08-17T08:06:32.159Z,60.60
2022-08-17T08:07:31.149Z,62.40
2022-08-17T08:08:31.248Z,59.70
2022-08-17T08:09:31.130Z,59.31
2022-08-17T08:10:31.143Z,59.88
2022-08-17T08:11:31.111Z,59.81
2022-08-17T08:12:33.624Z,60.70
2022-08-17T08:13:31.164Z,61.30
2022-08-17T08:14:31.252Z,61.69
2022-08-17T08:15:31.071Z,61.07
2022-08-17T08:16:31.059Z,61.96
2022-08-17T08:17:31.044Z,63.03
2022-08-17T08:18:53.721Z,59.65
2022-08-17T08:19:32.024Z,58.03
2022-08-17T08:20:52.266Z,57.81
2022-08-17T08:21:32.792Z,57.98
2022-08-17T08:22:30.987Z,56.98
2022-08-17T08:23:30.985Z,59.39
2022-08-17T08:24:31.265Z,58.20
2022-08-17T08:25:30.958Z,59.36
2022-08-17T08:26:30.946Z,58.37
2022-08-17T08:27:31.037Z,59.53
2022-08-17T08:28:30.920Z,57.95
2022-08-17T08:29:30.919Z,57.23
2022-08-17T08:30:31.337Z,56.73
2022-08-17T08:31:30.899Z,59.41
2022-08-17T08:32:30.879Z,58.51
2022-08-17T08:33:30.880Z,57.42
2022-08-17T08:34:53.494Z,59.53
2022-08-17T08:35:32.355Z,54.38
2022-08-17T08:37:12.572Z,56.68
2022-08-17T08:37:35.757Z,53.73
2022-08-17T08:38:31.822Z,56.91
2022-08-17T08:39:30.822Z,57.41
2022-08-17T08:40:30.800Z,56.88
2022-08-17T08:41:30.801Z,55.40
2022-08-17T08:42:30.771Z,60.46
2022-08-17T08:43:30.774Z,56.66
2022-08-17T08:45:00.802Z,57.65
2022-08-17T08:45:31.765Z,58.25
2022-08-17T08:46:30.726Z,57.75
2022-08-17T08:47:30.736Z,58.12
2022-08-17T08:48:53.750Z,57.32
2022-08-17T08:50:01.398Z,58.39
2022-08-17T08:50:37.614Z,55.91
2022-08-17T08:51:31.688Z,56.90
2022-08-17T08:52:30.668Z,56.60
2022-08-17T08:53:30.659Z,57.10
2022-08-17T08:54:30.657Z,60.77
2022-08-17T08:55:30.649Z,56.11
2022-08-17T08:56:30.622Z,56.11
2022-08-17T08:57:33.960Z,56.04
2022-08-17T08:58:36.396Z,57.29
2022-08-17T08:59:31.591Z,58.69
2022-08-17T09:00:30.580Z,56.43
2022-08-17T09:01:30.640Z,57.13
2022-08-17T09:02:34.922Z,60.00
2022-08-17T09:03:51.718Z,59.01
2022-08-17T09:04:44.963Z,57.72
2022-08-17T09:05:31.534Z,59.31
2022-08-17T09:06:37.353Z,57.10
2022-08-17T09:07:31.513Z,56.38
2022-08-17T09:08:30.513Z,57.64
2022-08-17T09:09:30.487Z,54.37
2022-08-17T09:10:30.488Z,55.53
2022-08-17T09:11:30.465Z,54.14
2022-08-17T09:12:30.457Z,55.63
2022-08-17T09:13:30.554Z,56.23
2022-08-17T09:14:30.439Z,54.94
2022-08-17T09:15:31.419Z,55.73
2022-08-17T09:16:30.419Z,55.63
2022-08-17T09:17:30.408Z,56.52
2022-08-17T09:19:02.699Z,55.63
2022-08-17T09:19:31.390Z,56.13
2022-08-17T09:20:30.380Z,54.24
2022-08-17T09:21:33.824Z,54.77
2022-08-17T09:22:30.363Z,55.46
2022-08-17T09:23:30.350Z,53.60
2022-08-17T09:24:30.332Z,54.69
2022-08-17T09:25:30.352Z,55.16
2022-08-17T09:26:30.313Z,54.24
2022-08-17T09:27:30.294Z,55.80
2022-08-17T09:28:30.284Z,54.02
2022-08-17T09:29:30.283Z,54.69
2022-08-17T09:30:30.283Z,54.88
2022-08-17T09:31:33.405Z,52.78
2022-08-17T09:32:30.246Z,54.49
2022-08-17T09:33:30.251Z,52.14
2022-08-17T09:34:33.289Z,52.76
2022-08-17T09:35:36.979Z,53.75
2022-08-17T09:36:31.218Z,54.94
2022-08-17T09:37:30.195Z,56.72
2022-08-17T09:38:32.495Z,54.71
2022-08-17T09:39:30.258Z,54.10
2022-08-17T09:40:30.203Z,53.28
2022-08-17T09:41:30.157Z,51.10
2022-08-17T09:42:30.150Z,53.67
2022-08-17T09:43:30.142Z,54.29
2022-08-17T09:44:30.124Z,53.80
2022-08-17T09:45:30.139Z,55.28
2022-08-17T09:46:30.109Z,53.40
2022-08-17T09:47:30.131Z,55.38
2022-08-17T09:48:30.080Z,56.07
2022-08-17T09:49:30.084Z,55.05
2022-08-17T09:51:03.225Z,52.95
2022-08-17T09:51:31.050Z,55.89
2022-08-17T09:52:30.836Z,53.59
2022-08-17T09:53:32.049Z,51.50
2022-08-17T09:54:45.341Z,51.18
2022-08-17T09:55:30.995Z,53.64
2022-08-17T09:56:29.996Z,51.35
2022-08-17T09:57:31.751Z,52.73
2022-08-17T09:58:29.974Z,52.23
2022-08-17T09:59:35.946Z,51.15
2022-08-17T10:00:30.948Z,51.57
2022-08-17T10:01:30.004Z,51.10
2022-08-17T10:02:29.936Z,51.69
2022-08-17T10:03:29.919Z,51.89
2022-08-17T10:04:29.938Z,52.39
2022-08-17T10:05:29.898Z,53.15
2022-08-17T10:06:29.888Z,52.56
2022-08-17T10:07:29.871Z,51.35
2022-08-17T10:08:29.871Z,51.54
2022-08-17T10:09:29.861Z,51.35
2022-08-17T10:10:29.851Z,49.30
2022-08-17T10:11:33.530Z,51.20
2022-08-17T10:12:30.452Z,51.57
2022-08-17T10:13:29.813Z,50.88
2022-08-17T10:14:36.886Z,50.78
2022-08-17T10:15:30.812Z,51.87
2022-08-17T10:16:29.793Z,50.29
2022-08-17T10:17:29.776Z,48.71
2022-08-17T10:18:33.132Z,52.26
2022-08-17T10:19:29.748Z,50.98
2022-08-17T10:20:29.754Z,52.06
2022-08-17T10:21:29.738Z,52.33
2022-08-17T10:22:34.693Z,53.39
2022-08-17T10:23:30.718Z,51.69
2022-08-17T10:24:29.708Z,49.92
2022-08-17T10:25:48.561Z,49.23
2022-08-17T10:26:40.573Z,49.23
2022-08-17T10:27:30.670Z,47.26
2022-08-17T10:28:30.397Z,49.06
2022-08-17T10:29:29.650Z,49.45
2022-08-17T10:30:30.640Z,50.54
2022-08-17T10:31:36.921Z,51.79
2022-08-17T10:32:30.621Z,50.42
2022-08-17T10:33:29.602Z,49.43
2022-08-17T10:34:29.611Z,48.35
2022-08-17T10:35:29.583Z,51.52
2022-08-17T10:36:29.581Z,50.76
2022-08-17T10:37:29.574Z,51.47
2022-08-17T10:38:29.633Z,52.26
2022-08-17T10:39:29.560Z,53.84
2022-08-17T10:40:29.573Z,53.84
2022-08-17T10:41:29.525Z,51.37
2022-08-17T10:42:30.339Z,49.92
2022-08-17T10:43:29.505Z,51.72
2022-08-17T10:44:38.076Z,51.72
2022-08-17T10:45:30.484Z,51.59
2022-08-17T10:46:31.273Z,50.29
2022-08-17T10:47:35.106Z,49.18
2022-08-17T10:48:30.459Z,49.97
2022-08-17T10:49:29.491Z,49.55
2022-08-17T10:50:29.437Z,49.95
2022-08-17T10:51:29.420Z,48.74
2022-08-17T10:52:29.419Z,49.26
2022-08-17T10:53:29.409Z,50.54
2022-08-17T10:54:29.401Z,47.90
2022-08-17T10:55:29.380Z,47.21
2022-08-17T10:56:29.373Z,48.49
2022-08-17T10:57:29.365Z,46.52
2022-08-17T10:58:29.360Z,46.64
2022-08-17T10:59:29.352Z,48.32
2022-08-17T11:00:29.348Z,51.10
2022-08-17T11:01:29.386Z,50.31
2022-08-17T11:02:29.312Z,49.30
2022-08-17T11:03:29.316Z,47.53
2022-08-17T11:04:29.295Z,53.05
2022-08-17T11:05:29.357Z,47.41
2022-08-17T11:06:29.316Z,46.91
2022-08-17T11:07:29.286Z,45.04
2022-08-17T11:08:29.263Z,47.11
2022-08-17T11:09:29.235Z,47.68
2022-08-17T11:10:29.235Z,48.94
2022-08-17T11:11:29.967Z,45.09
2022-08-17T11:12:29.218Z,49.26
2022-08-17T11:13:29.198Z,50.31
2022-08-17T11:14:29.190Z,48.35
2022-08-17T11:15:30.857Z,50.12
2022-08-17T11:16:29.171Z,47.04
2022-08-17T11:17:29.158Z,48.22
2022-08-17T11:18:29.154Z,50.49
2022-08-17T11:19:29.132Z,48.03
2022-08-17T11:20:29.128Z,46.10
2022-08-17T11:21:29.111Z,47.82
2022-08-17T11:22:33.371Z,52.46
2022-08-17T11:23:29.110Z,47.21
2022-08-17T11:24:29.083Z,46.72
2022-08-17T11:25:29.066Z,52.23
2022-08-17T11:26:29.114Z,51.32
2022-08-17T11:27:29.045Z,48.96
2022-08-17T11:28:29.047Z,48.29
2022-08-17T11:29:29.341Z,47.90
2022-08-17T11:30:29.017Z,49.67
2022-08-17T11:31:37.931Z,49.08
2022-08-17T11:32:30.007Z,50.46
2022-08-17T11:33:29.338Z,49.55
2022-08-17T11:34:28.990Z,46.99
2022-08-17T11:35:28.966Z,45.68
2022-08-17T11:36:28.961Z,47.53
2022-08-17T11:37:28.949Z,47.12
2022-08-17T11:38:28.950Z,45.05
2022-08-17T11:39:28.946Z,44.95
2022-08-17T11:40:28.910Z,45.54
2022-08-17T11:41:28.911Z,46.11
2022-08-17T11:42:28.942Z,47.00
2022-08-17T11:43:28.883Z,45.72
2022-08-17T11:44:28.872Z,45.74
2022-08-17T11:45:32.272Z,46.03
2022-08-17T11:46:28.855Z,46.35
2022-08-17T11:47:28.875Z,47.34
2022-08-17T11:48:29.398Z,48.32
2022-08-17T11:49:28.824Z,47.63
2022-08-17T11:50:28.816Z,46.57
2022-08-17T11:51:28.796Z,48.14
2022-08-17T11:52:28.786Z,48.82
2022-08-17T11:53:28.777Z,46.47
2022-08-17T11:54:33.847Z,49.16
2022-08-17T11:55:40.738Z,50.24
2022-08-17T11:56:29.760Z,47.38
2022-08-17T11:57:28.755Z,47.28
2022-08-17T11:58:28.733Z,48.39
2022-08-17T11:59:28.711Z,50.85
2022-08-17T12:00:28.881Z,50.88
2022-08-17T12:01:28.704Z,53.17
2022-08-17T12:02:29.823Z,52.09
2022-08-17T12:03:28.778Z,51.59
2022-08-17T12:04:28.685Z,49.55
2022-08-17T12:05:29.464Z,48.68
2022-08-17T12:06:30.455Z,52.04
2022-08-17T12:07:28.647Z,51.72
2022-08-17T12:08:28.623Z,51.13
2022-08-17T12:09:28.614Z,54.26
2022-08-17T12:10:28.623Z,53.47
2022-08-17T12:11:55.125Z,51.37
2022-08-17T12:12:29.620Z,49.30
2022-08-17T12:13:33.977Z,49.48
2022-08-17T12:15:05.982Z,51.32
2022-08-17T12:15:29.580Z,52.63
2022-08-17T12:16:28.587Z,49.87
2022-08-17T12:17:39.237Z,48.07
2022-08-17T12:18:29.541Z,50.02
2022-08-17T12:19:28.498Z,49.40
2022-08-17T12:20:28.497Z,49.04
2022-08-17T12:21:28.496Z,48.98
2022-08-17T12:22:28.481Z,50.38
2022-08-17T12:23:28.479Z,49.77
2022-08-17T12:24:28.460Z,50.36
2022-08-17T12:25:28.441Z,49.85
2022-08-17T12:26:28.440Z,57.33
2022-08-17T12:28:04.256Z,53.09
2022-08-17T12:28:29.436Z,49.52
2022-08-17T12:29:35.915Z,46.77
2022-08-17T12:30:29.403Z,46.97
2022-08-17T12:31:28.750Z,46.37
2022-08-17T12:32:28.391Z,47.85
2022-08-17T12:33:29.033Z,47.78
2022-08-17T12:34:28.354Z,50.31
2022-08-17T12:35:28.344Z,52.68
2022-08-17T12:36:28.338Z,47.92
2022-08-17T12:37:28.316Z,50.29
2022-08-17T12:38:32.272Z,49.80
2022-08-17T12:39:29.330Z,51.67
2022-08-17T12:40:28.297Z,50.59
2022-08-17T12:41:28.289Z,48.91
2022-08-17T12:42:28.280Z,48.79
2022-08-17T12:43:28.249Z,49.55
2022-08-17T12:44:28.279Z,47.49
2022-08-17T12:45:28.239Z,49.35
2022-08-17T12:46:28.239Z,49.26
2022-08-17T12:47:29.445Z,48.77
2022-08-17T12:48:28.211Z,48.18
2022-08-17T12:49:28.582Z,51.18
2022-08-17T12:50:30.159Z,47.26
2022-08-17T12:51:28.172Z,48.57
2022-08-17T12:52:28.172Z,49.26
2022-08-17T12:53:28.265Z,47.90
2022-08-17T12:54:28.154Z,48.69